Map

Track Data

SID SEASON NUMBER BASIN SUBBASIN NAME ISO_TIME NATURE LAT LON WMO_WIND WMO_PRES WMO_AGENCY TRACK_TYPE DIST2LAND LANDFALL IFLAG USA_AGENCY USA_ATCF_ID USA_LAT USA_LON USA_RECORD USA_STATUS USA_WIND USA_PRES USA_SSHS USA_R34_NE USA_R34_SE USA_R34_SW USA_R34_NW USA_R50_NE USA_R50_SE USA_R50_SW USA_R50_NW USA_R64_NE USA_R64_SE USA_R64_SW USA_R64_NW USA_POCI USA_ROCI USA_RMW USA_EYE TOKYO_LAT TOKYO_LON TOKYO_GRADE TOKYO_WIND TOKYO_PRES TOKYO_R50_DIR TOKYO_R50_LONG TOKYO_R50_SHORT TOKYO_R30_DIR TOKYO_R30_LONG TOKYO_R30_SHORT TOKYO_LAND CMA_LAT CMA_LON CMA_CAT CMA_WIND CMA_PRES HKO_LAT HKO_LON HKO_CAT HKO_WIND HKO_PRES NEWDELHI_LAT NEWDELHI_LON NEWDELHI_GRADE NEWDELHI_WIND NEWDELHI_PRES NEWDELHI_CI NEWDELHI_DP NEWDELHI_POCI REUNION_LAT REUNION_LON REUNION_TYPE REUNION_WIND REUNION_PRES REUNION_TNUM REUNION_CI REUNION_RMW REUNION_R34_NE REUNION_R34_SE REUNION_R34_SW REUNION_R34_NW REUNION_R50_NE REUNION_R50_SE REUNION_R50_SW REUNION_R50_NW REUNION_R64_NE REUNION_R64_SE REUNION_R64_SW REUNION_R64_NW BOM_LAT BOM_LON BOM_TYPE BOM_WIND BOM_PRES BOM_TNUM BOM_CI BOM_RMW BOM_R34_NE BOM_R34_SE BOM_R34_SW BOM_R34_NW BOM_R50_NE BOM_R50_SE BOM_R50_SW BOM_R50_NW BOM_R64_NE BOM_R64_SE BOM_R64_SW BOM_R64_NW BOM_ROCI BOM_POCI BOM_EYE BOM_POS_METHOD BOM_PRES_METHOD NADI_LAT NADI_LON NADI_CAT NADI_WIND NADI_PRES WELLINGTON_LAT WELLINGTON_LON WELLINGTON_WIND WELLINGTON_PRES DS824_LAT DS824_LON DS824_STAGE DS824_WIND DS824_PRES TD9636_LAT TD9636_LON TD9636_STAGE TD9636_WIND TD9636_PRES TD9635_LAT TD9635_LON TD9635_WIND TD9635_PRES TD9635_ROCI NEUMANN_LAT NEUMANN_LON NEUMANN_CLASS NEUMANN_WIND NEUMANN_PRES MLC_LAT MLC_LON MLC_CLASS MLC_WIND MLC_PRES USA_GUST BOM_GUST BOM_GUST_PER REUNION_GUST REUNION_GUST_PER USA_SEAHGT USA_SEARAD_NE USA_SEARAD_SE USA_SEARAD_SW USA_SEARAD_NW STORM_SPEED STORM_DIR
1980021S10090 1980 11 SI MM CLARA 1980-01-21 00:00:00 TS -9.70000 89.7000 25 1001 bom main 1356 1347 ______O__O____ -1 -9.70000 89.7000 20 25 1001 1.50000 -9.70000 89.7000 TC 30 1001 5 118
1980021S10090 1980 11 SI MM CLARA 1980-01-21 03:00:00 TS -9.81004 89.9125 main 1347 1338 ______P__P____ -1 -9.81004 89.9125 20 25 1000 -9.81004 89.9125 TC 30 1000 4 115
1980021S10090 1980 11 SI WA CLARA 1980-01-21 06:00:00 TS -9.87143 90.0714 25 999 bom main 1338 1330 ______O__O__O_ -1 -9.90000 90.1000 20 25 999 1.50000 -9.90000 90.1000 TC 30 999 -9.70000 89.9000 TC 35 998 3 111
1980021S10090 1980 11 SI WA CLARA 1980-01-21 09:00:00 TS -9.92598 90.2195 main 1330 1322 ______P__P__P_ -1 -9.95747 90.2500 20 25 998 -9.95747 90.2500 TC 32 998 -9.80002 90.0975 TC 35 998 3 109
1980021S10090 1980 11 SI WA CLARA 1980-01-21 12:00:00 TS -9.97273 90.3727 25 998 bom main 1322 1306 ______O__O__O_ -1 -10.0000 90.4000 20 25 998 2.00000 -10.0000 90.4000 TC 35 998 -9.90000 90.3000 TC 35 998 4 106
1980021S10090 1980 11 SI WA CLARA 1980-01-21 15:00:00 TS -10.0283 90.5692 main 1306 1299 ______P__P__P_ -1 -10.0425 90.6000 20 27 997 -10.0425 90.6000 TC 35 997 -10.0000 90.5075 TC 35 998 4 108
1980021S10090 1980 11 SI WA CLARA 1980-01-21 18:00:00 TS -10.1000 90.7667 30 996 bom main 1299 1291 ______O__O__O_ -1 -10.1000 90.8000 20 30 996 2.50000 -10.1000 90.8000 TC 35 996 -10.1000 90.7000 TC 35 998 4 114
1980021S10090 1980 11 SI WA CLARA 1980-01-21 21:00:00 TS -10.1749 90.8968 main 1299 1292 ______P__P__P_ -1 -10.1699 90.9276 20 30 994 -10.1699 90.9276 TC 37 994 -10.1849 90.8351 TC 35 998 4 124
1980021S10090 1980 11 SI WA CLARA 1980-01-22 00:00:00 TS -10.3000 91.0667 30 993 bom main 1293 1287 ______O__O__O_ -1 -10.3000 91.1000 20 30 993 2.50000 -10.3000 91.1000 TC 40 993 -10.3000 91.0000 TC 35 998 6 126
1980021S10090 1980 11 SI WA CLARA 1980-01-22 03:00:00 TS -10.5109 91.3700 main 1288 1282 ______P__P__P_ -1 -10.5275 91.4200 20 35 990 -10.5275 91.4200 TC 45 990 -10.4775 91.2700 TC 35 997 8 125
1980021S10090 1980 11 SI WA CLARA 1980-01-22 06:00:00 TS -10.7667 91.7333 40 988 bom main 1293 1282 ______O__O__O_ -1 -10.8000 91.8000 30 40 988 3.00000 -10.8000 91.8000 TC 50 988 -10.7000 91.6000 TC 35 996 8 126
1980021S10090 1980 11 SI WA CLARA 1980-01-22 09:00:00 TS -11.0040 92.0560 main 1284 1280 ______P__P__P_ -1 -11.0349 92.1277 30 45 990 -11.0349 92.1277 TC 47 990 -10.9424 91.9126 TC 37 995 9 126
1980021S10090 1980 11 SI WA CLARA 1980-01-22 12:00:00 TS -11.2667 92.4333 50 992 bom main 1293 1282 ______O__O__O_ -1 -11.3000 92.5000 30 50 992 3.50000 -11.3000 92.5000 TC 45 992 -11.2000 92.3000 TC 40 994 10 125
1980021S10090 1980 11 SI WA CLARA 1980-01-22 15:00:00 TS -11.5858 92.9175 main 1291 1284 ______P__P__P_ -1 -11.6500 92.9699 30 50 994 -11.6500 92.9699 TC 40 994 -11.4575 92.8125 TC 40 994 12 122
1980021S10090 1980 11 SI WA CLARA 1980-01-22 18:00:00 TS -11.9000 93.4667 50 996 bom main 1288 1283 ______O__O__O_ -1 -12.0000 93.5000 30 50 996 3.50000 -12.0000 93.5000 TC 35 996 -11.7000 93.4000 TC 40 995 12 118
1980021S10090 1980 11 SI WA CLARA 1980-01-22 21:00:00 TS -12.1505 93.9836 main 1293 1265 ______P__P__P_ -1 -12.2796 93.9977 30 50 997 -12.2796 93.9977 TC 32 997 -11.8921 93.9554 TC 37 996 12 113
1980021S10090 1980 11 SI WA CLARA 1980-01-23 00:00:00 TS -12.3667 94.6000 50 999 bom main 1266 1226 ______O__O__O_ -1 -12.5000 94.6000 30 50 999 3.50000 -12.5000 94.6000 TC 30 999 -12.1000 94.6000 TC 35 997 15 109
1980021S10090 1980 11 SI WA CLARA 1980-01-23 03:00:00 TS -12.6469 95.4269 main 1226 1179 ______P__P__P_ -1 -12.7327 95.4195 30 45 1000 -12.7327 95.4195 TC 30 1000 -12.4753 95.4416 TC 35 997 17 104
1980021S10090 1980 11 SI WA CLARA 1980-01-23 06:00:00 TS -12.7667 96.3000 40 1001 bom main 1179 1109 ______O__O__O_ -1 -12.8000 96.3000 30 40 1001 3.00000 -12.8000 96.3000 TC 30 1001 -12.7000 96.3000 TC 35 998 16 86
1980021S10090 1980 11 SI WA CLARA 1980-01-23 09:00:00 TS -12.5462 97.0296 main 1102 1021 ______P__P__P_ -1 -12.5746 97.0578 30 35 1002 -12.5746 97.0578 TC 27 1002 -12.4895 96.9730 TC 32 998 15 67
1980021S10090 1980 11 SI WA CLARA 1980-01-23 12:00:00 TS -12.1667 97.7333 30 1003 bom main 1021 933 ______O__O__O_ -1 -12.2000 97.8000 20 30 1003 2.50000 -12.2000 97.8000 TC 25 1003 -12.1000 97.6000 TC 30 999 16 61
1980021S10090 1980 11 SI WA CLARA 1980-01-23 15:00:00 TS -11.7531 98.4831 main 924 843 ______P__P__P_ -1 -11.7673 98.5932 20 30 1003 -11.7673 98.5932 TC 22 1003 -11.7246 98.2630 TC 30 999 16 66
1980021S10090 1980 11 SI WA CLARA 1980-01-23 18:00:00 TS -11.5000 99.2667 30 1004 bom main 834 776 ______O__O__O_ -1 -11.5000 99.4000 20 30 1004 2.50000 -11.5000 99.4000 TC 20 1004 -11.5000 99.0000 TC 30 999 16 85
1980021S10090 1980 11 SI WA CLARA 1980-01-23 21:00:00 TS -11.6186 100.139 main 776 741 ______P__P__P_ -1 -11.6301 100.244 20 30 1003 -11.6301 100.244 TC 22 1003 -11.5955 99.9295 TC 32 998 17 106
1980021S10090 1980 11 SI WA CLARA 1980-01-24 00:00:00 TS -11.9667 100.933 30 1003 bom main 749 737 ______O__O__O_ -1 -12.0000 101.000 20 30 1003 2.50000 -12.0000 101.000 TC 25 1003 -11.9000 100.800 TC 35 998 15 120
1980021S10090 1980 11 SI WA CLARA 1980-01-24 03:00:00 TS -12.3722 101.501 main 747 741 ______P__P__P_ -1 -12.4272 101.567 20 27 1001 -12.4272 101.567 TC 27 1001 -12.2620 101.368 TC 37 995 13 132
1980021S10090 1980 11 SI WA CLARA 1980-01-24 06:00:00 TS -12.8333 101.933 25 999 bom main 763 763 ______O__O__O_ -1 -12.9000 102.000 20 25 999 2.00000 -12.9000 102.000 TC 30 999 -12.7000 101.800 TC 40 993 12 138
1980021S10090 1980 11 SI WA CLARA 1980-01-24 09:00:00 TS -13.2749 102.337 main 794 789 ______P__P__P_ -1 -13.3298 102.373 20 25 996 -13.3298 102.373 TC 35 996 -13.1649 102.265 TC 45 990 11 138
1980021S10090 1980 11 SI WA CLARA 1980-01-24 12:00:00 TS -13.6667 102.700 25 994 bom main 813 807 ______O__O__O_ -1 -13.7000 102.700 20 25 994 2.00000 -13.7000 102.700 TC 40 994 -13.6000 102.700 TC 50 988 10 134
1980021S10090 1980 11 SI WA CLARA 1980-01-24 15:00:00 TS -13.9607 103.059 main 822 817 ______P__P__P_ -1 -13.9724 103.043 20 27 992 -13.9724 103.043 TC 42 992 -13.9373 103.093 TC 50 988 9 127
1980021S10090 1980 11 SI WA CLARA 1980-01-24 18:00:00 TS -14.2000 103.433 30 990 bom main 829 824 ______O__O__O_ -1 -14.2000 103.400 20 30 990 2.50000 -14.2000 103.400 TC 45 990 -14.2000 103.500 TC 50 988 9 125
1980021S10090 1980 11 SI WA CLARA 1980-01-24 21:00:00 TS -14.4705 103.809 main 844 837 ______P__P__P_ -1 -14.4721 103.740 20 35 988 -14.4721 103.740 TC 47 988 -14.4672 103.947 TC 50 988 10 117
1980021S10090 1980 11 SI WA CLARA 1980-01-25 00:00:00 TS -14.6533 104.340 40 987 bom main 849 831 O_____O__OO_O_ jtwc_sh SH101980 -14.6000 104.500 -1 -14.7000 104.200 30 40 987 3.00000 -14.7000 104.200 TC 50 987 -14.6000 104.500 2 -14.6000 104.500 TC 50 988 13 99
1980021S10090 1980 11 SI WA CLARA 1980-01-25 03:00:00 TS -14.6752 105.092 main 829 792 P_____P__PP_P_ SH101980 -14.4530 105.250 -1 -14.9278 104.912 30 45 987 -14.9278 104.912 TC 50 987 -14.4548 105.252 2 -14.5026 105.213 TC 50 988 15 85
1980021S10090 1980 11 SI WA CLARA 1980-01-25 06:00:00 TS -14.5295 105.886 50 988 bom main 789 739 O_____O__OP_O_ jtwc_sh SH101980 -14.3000 106.000 -1 -14.9000 105.700 30 50 988 3.50000 -14.9000 105.700 TC 50 988 -14.3068 106.002 2 -14.3000 106.000 TC 50 988 15 72
1980021S10090 1980 11 SI WA CLARA 1980-01-25 09:00:00 TS -14.2094 106.615 main 739 693 P_____P__PP_P_ SH101980 -14.1423 106.750 -1 -14.3370 106.344 30 50 990 -14.3370 106.344 TC 47 990 -14.1553 106.752 2 -14.1423 106.750 TC 50 988 15 66
1980021S10090 1980 11 SI WA CLARA 1980-01-25 12:00:00 TS -13.9000 107.333 50 992 bom main 693 661 O_____O__OO_O_ jtwc_sh SH101980 -14.0000 107.500 -1 -13.7000 107.000 30 50 992 3.50000 -13.7000 107.000 TC 45 992 -14.0000 107.500 2 -14.0000 107.500 TC 50 988 15 71
1980021S10090 1980 11 SI WA CLARA 1980-01-25 15:00:00 TS -13.7173 108.098 main 661 650 P_____P__PP_P_ SH101980 -13.8698 108.258 -1 -13.4225 107.785 30 50 994 -13.4225 107.785 TC 40 994 -13.8492 108.246 2 -13.8698 108.258 TC 50 988 15 81
1980021S10090 1980 11 SI WA CLARA 1980-01-25 18:00:00 TS -13.6578 108.864 50 996 bom main 646 629 O_____O__OP_O_ jtwc_sh SH101980 -13.8000 109.000 -1 -13.4000 108.600 30 50 996 3.50000 -13.4000 108.600 TC 35 996 -13.7470 108.982 2 -13.8000 109.000 TC 50 988 14 89
1980021S10090 1980 11 SI WA CLARA 1980-01-25 21:00:00 TS -13.6882 109.574 main 627 623 P_____P__PP_P_ SH101980 -13.7747 109.700 -1 -13.5294 109.321 30 50 995 -13.5294 109.321 TC 37 995 -13.7462 109.702 2 -13.7747 109.700 TC 50 988 14 100
1980021S10090 1980 11 SI WA CLARA 1980-01-26 00:00:00 TS -13.9000 110.300 50 994 bom main 634 632 O_____O__OO_O_ jtwc_sh SH101980 -13.9000 110.400 -1 -13.9000 110.100 30 50 994 3.50000 -13.9000 110.100 TC 40 994 -13.9000 110.400 2 -13.9000 110.400 TC 50 988 17 111
1980021S10090 1980 11 SI WA CLARA 1980-01-26 03:00:00 TS -14.2947 111.169 main 663 662 P_____P__PP_P_ SH101980 -14.2101 111.172 -1 -14.4532 111.122 30 50 990 -14.4532 111.122 TC 45 990 -14.2313 111.253 2 -14.2101 111.172 TC 50 988 19 121
1980021S10090 1980 11 SI WA CLARA 1980-01-26 06:00:00 TS -14.8698 111.993 50 987 bom main 728 708 O_____O__OP_O_ jtwc_sh SH101980 -14.7000 111.900 -1 -15.2000 112.100 30 50 987 3.50000 -15.2000 112.100 TC 50 987 -14.7187 112.060 2 -14.7000 111.900 TC 50 988 20 130
1980021S10090 1980 11 SI WA CLARA 1980-01-26 09:00:00 TS -15.5654 112.717 main 698 609 P_____P__PP_P_ SH101980 -15.2975 112.599 -1 -16.0861 112.897 30 50 984 -16.0921 112.923 TC 52 984 -15.3215 112.687 2 -15.2975 112.599 TC 55 985 18 144
1980021S10090 1980 11 SI WA CLARA 1980-01-26 12:00:00 TS -16.3333 113.100 50 982 bom main 609 550 O_____O__OO_O_ jtwc_sh SH101980 -16.0000 113.000 -1 -17.0000 113.300 30 50 982 3.50000 -17.0000 113.300 TC 55 982 -16.0000 113.000 2 -16.0000 113.000 TC 60 982 15 170
1980021S10090 1980 11 SI WA CLARA 1980-01-26 15:00:00 TS -17.0795 112.987 50 980 bom main 541 484 P_____O__PP_P_ SH101980 -16.7344 112.945 -1 -17.8000 113.200 30 50 980 3.50000 -17.7896 113.012 TC 55 982 -16.6843 112.874 2 -16.7344 112.945 TC 60 981 16 204
1980021S10090 1980 11 SI WA CLARA 1980-01-26 18:00:00 TS -17.7886 112.420 55 983 bom main 488 458 O_____O__OP_O_ jtwc_sh SH101980 -17.5000 112.500 -1 -18.4000 112.300 30 55 983 4.00000 -18.4000 112.300 TC 55 983 -17.4317 112.423 2 -17.5000 112.500 TC 60 981 18 223
1980021S10090 1980 11 SI WA CLARA 1980-01-26 21:00:00 TS -18.3953 111.691 main 459 451 P_____P__PP_P_ SH101980 -18.2504 111.825 -1 -18.7069 111.424 30 57 985 -18.7008 111.484 TC 52 985 -18.2131 111.760 2 -18.2504 111.825 TC 57 983 19 230
1980021S10090 1980 11 SI WA CLARA 1980-01-27 00:00:00 TS -19.0000 110.900 60 988 bom main 457 450 O_____O__OO_O_ jtwc_sh SH101980 -19.0000 111.000 -1 -19.0000 110.700 30 60 988 4.00000 -19.0000 110.700 TC 50 988 -19.0000 111.000 2 -19.0000 111.000 TC 55 986 19 225
1980021S10090 1980 11 SI WA CLARA 1980-01-27 03:00:00 TS -19.7310 110.261 main 456 453 P_____P__PP_P_ SH101980 -19.7497 110.249 -1 -19.6541 110.277 30 57 991 -19.6541 110.277 TC 45 991 -19.8288 110.265 2 -19.7497 110.249 TC 52 987 19 219
1980021S10090 1980 11 SI WA CLARA 1980-01-27 06:00:00 TS -20.4908 109.628 55 994 bom main 475 470 O_____O__OP_O_ jtwc_sh SH101980 -20.5000 109.500 -1 -20.4000 109.900 30 55 994 4.00000 -20.4000 109.900 TC 40 994 -20.6451 109.468 2 -20.5000 109.500 TC 50 988 20 221
1980021S10090 1980 11 SI WA CLARA 1980-01-27 09:00:00 TS -21.2224 108.895 main 509 505 P_____P__PP_P_ SH101980 -21.2951 108.713 -1 -21.0303 109.273 30 52 996 -21.0303 109.273 TC 37 996 -21.3885 108.687 2 -21.2951 108.713 TC 50 988 19 224
1980021S10090 1980 11 SI WA CLARA 1980-01-27 12:00:00 TS -21.8667 108.200 50 998 bom main 561 561 O_____O__OO_O_ jtwc_sh SH101980 -22.0000 108.000 -1 -21.6000 108.600 30 50 998 3.50000 -21.6000 108.600 TC 35 998 -22.0000 108.000 1 -22.0000 108.000 TC 50 988 17 225
1980021S10090 1980 11 SI WA CLARA 1980-01-27 15:00:00 TS -22.4001 107.635 main 616 615 P_____P__PP_P_ SH101980 -22.5472 107.424 -1 -22.1596 108.035 30 45 999 -22.1596 108.035 TC 32 999 -22.4395 107.469 1 -22.5472 107.424 TC 45 993 13 226
1980021S10090 1980 11 SI WA CLARA 1980-01-27 18:00:00 TS -22.7557 107.211 40 1000 bom main 654 654 O_____O__OP_O_ jtwc_sh SH101980 -22.9000 107.000 -1 -22.6000 107.500 30 40 1000 3.00000 -22.6000 107.500 TC 30 1000 -22.7378 107.071 1 -22.9000 107.000 TC 40 998 9 235
1980021S10090 1980 11 SI WA CLARA 1980-01-27 21:00:00 TS -22.9360 106.819 main 692 689 P_____P__PP_P_ SH101980 -23.0551 106.713 -1 -22.8451 106.912 30 35 1000 -22.8451 106.912 TC 30 1000 -22.9423 106.763 1 -23.0551 106.713 TC 35 998 8 249
1980021S10090 1980 11 SI WA CLARA 1980-01-28 00:00:00 TS -23.0333 106.433 30 1001 bom main 729 726 O_____O__OO_O_ jtwc_sh SH101980 -23.1000 106.500 -1 -23.0000 106.400 20 30 1001 2.50000 -23.0000 106.400 TC 30 1001 -23.1000 106.500 1 -23.1000 106.500 TC 30 999 7 248
1980021S10090 1980 11 SI WA CLARA 1980-01-28 03:00:00 TS -23.2070 106.092 main 754 754 ______P__P____ SH101980 -1 -23.2070 106.092 20 30 1001 -23.2070 106.092 TC 27 1001 1 TC 7 238
1980021S10090 1980 11 SI WA CLARA 1980-01-28 06:00:00 TS -23.4000 105.800 30 1002 bom main 780 780 ______O__O____ -1 -23.4000 105.800 20 30 1002 2.50000 -23.4000 105.800 TC 25 1002 1 8 239
1980021S10090 1980 11 SI WA CLARA 1980-01-28 09:00:00 TS -23.6327 105.316 main 827 825 ______P__P____ -1 -23.6327 105.316 20 27 1002 -23.6327 105.316 TC 25 1002 1 10 252
1980021S10090 1980 11 SI WA CLARA 1980-01-28 12:00:00 TS -23.7000 104.800 25 1003 bom main 876 876 ______O__O____ -1 -23.7000 104.800 20 25 1003 2.00000 -23.7000 104.800 TC 25 1003 9 283
1980021S10090 1980 11 SI WA CLARA 1980-01-28 15:00:00 TS -23.4322 104.392 main 921 921 ______P__P____ -1 -23.4322 104.392 20 25 1003 -23.4322 104.392 TC 22 1003 10 314
1980021S10090 1980 11 SI WA CLARA 1980-01-28 18:00:00 TS -23.0000 104.000 25 1004 bom main 969 969 ______O__O____ -1 -23.0000 104.000 20 25 1004 2.00000 -23.0000 104.000 TC 20 1004 11 318
1980021S10090 1980 11 SI WA CLARA 1980-01-28 21:00:00 TS -22.5854 103.565 main 1018 1018 ______P__P____ -1 -22.5854 103.565 20 25 1004 -22.5854 103.565 TC 20 1004 12 314
1980021S10090 1980 11 SI WA CLARA 1980-01-29 00:00:00 TS -22.2000 103.100 25 1005 bom main 1079 ______O__O____ -1 -22.2000 103.100 20 25 1005 2.00000 -22.2000 103.100 TC 20 1005 12 312

About IBTrACS Database

This database is a web-friendly format of International Best Track Archive for Climate Stewardship (IBTrACS), a global best track data archive curated by NOAA dating back to 1842.

Updated: 2021-11-26